createdAt,value
2023-03-10T00:00:20.428Z,2.19
2023-03-10T00:02:50.162Z,2.19
2023-03-10T00:05:18.387Z,2.19
2023-03-10T00:07:46.267Z,2.19
2023-03-10T00:10:14.198Z,2.20
2023-03-10T00:12:41.774Z,2.19
2023-03-10T00:15:09.840Z,2.19
2023-03-10T00:17:37.393Z,2.18
2023-03-10T00:20:08.005Z,2.19
2023-03-10T00:22:35.819Z,2.19
2023-03-10T00:25:03.386Z,2.20
2023-03-10T00:27:30.897Z,2.19
2023-03-10T00:29:58.461Z,2.19
2023-03-10T00:32:26.370Z,2.19
2023-03-10T00:34:53.897Z,2.20
2023-03-10T00:37:22.820Z,2.17
2023-03-10T00:39:51.699Z,2.17
2023-03-10T00:42:19.267Z,2.17
2023-03-10T00:44:46.901Z,2.19
2023-03-10T00:47:14.341Z,2.19
2023-03-10T00:49:41.801Z,2.18
2023-03-10T00:52:09.277Z,2.20
2023-03-10T00:54:41.692Z,2.19
2023-03-10T00:57:09.259Z,2.18
2023-03-10T00:59:49.365Z,2.17
2023-03-10T01:02:17.795Z,2.17
2023-03-10T01:04:45.346Z,2.19
2023-03-10T01:07:12.885Z,2.18
2023-03-10T01:09:41.830Z,2.16
2023-03-10T01:12:09.777Z,2.16
2023-03-10T01:14:37.255Z,2.15
2023-03-10T01:17:05.628Z,2.14
2023-03-10T01:19:33.153Z,2.13
2023-03-10T01:22:00.591Z,2.14
2023-03-10T01:24:28.106Z,2.15
2023-03-10T01:26:57.004Z,2.15
2023-03-10T01:29:24.500Z,2.15
2023-03-10T01:31:51.967Z,2.15
2023-03-10T01:34:19.451Z,2.16
2023-03-10T01:36:46.918Z,2.15
2023-03-10T01:39:14.403Z,2.17
2023-03-10T01:41:42.115Z,2.16
2023-03-10T01:44:14.550Z,2.17
2023-03-10T01:46:49.752Z,2.19
2023-03-10T01:49:21.566Z,2.19
2023-03-10T01:51:50.036Z,2.19
2023-03-10T01:54:18.450Z,2.20
2023-03-10T01:56:46.120Z,2.20
2023-03-10T01:59:14.988Z,2.20
2023-03-10T02:01:42.581Z,2.21
2023-03-10T02:04:10.528Z,2.21
2023-03-10T02:06:38.043Z,2.21
2023-03-10T02:09:05.531Z,2.21
2023-03-10T02:11:32.972Z,2.21
2023-03-10T02:14:01.651Z,2.20
2023-03-10T02:16:30.536Z,2.20
2023-03-10T02:18:58.040Z,2.21
2023-03-10T02:21:28.772Z,2.20
2023-03-10T02:24:01.262Z,2.21
2023-03-10T02:26:31.461Z,2.19
2023-03-10T02:29:00.466Z,2.21
2023-03-10T02:31:28.249Z,2.20
2023-03-10T02:33:55.792Z,2.20
2023-03-10T02:36:24.425Z,2.20
2023-03-10T02:38:52.110Z,2.20
2023-03-10T02:41:21.176Z,2.21
2023-03-10T02:43:49.324Z,2.20
2023-03-10T02:46:18.624Z,2.20
2023-03-10T02:48:46.227Z,2.20
2023-03-10T02:51:15.426Z,2.19
2023-03-10T02:53:42.910Z,2.20
2023-03-10T02:56:10.379Z,2.19
2023-03-10T02:58:37.951Z,2.20
2023-03-10T03:01:06.124Z,2.20
2023-03-10T03:03:35.148Z,2.20
2023-03-10T03:06:03.063Z,2.21
2023-03-10T03:08:30.589Z,2.21
2023-03-10T03:10:58.062Z,2.20
2023-03-10T03:13:25.538Z,2.20
2023-03-10T03:15:53.131Z,2.22
2023-03-10T03:18:20.707Z,2.23
2023-03-10T03:20:49.628Z,2.25
2023-03-10T03:23:17.097Z,2.25
2023-03-10T03:25:44.687Z,2.25
2023-03-10T03:28:12.600Z,2.22
2023-03-10T03:30:40.422Z,2.23
2023-03-10T03:33:08.095Z,2.24
2023-03-10T03:35:36.172Z,2.25
2023-03-10T03:38:05.308Z,2.25
2023-03-10T03:40:34.114Z,2.25
2023-03-10T03:43:01.830Z,2.26
2023-03-10T03:45:29.778Z,2.26
2023-03-10T03:47:57.344Z,2.27
2023-03-10T03:50:25.029Z,2.27
2023-03-10T03:52:52.569Z,2.26
2023-03-10T03:55:21.418Z,2.25
2023-03-10T03:57:49.088Z,2.24
2023-03-10T04:00:18.079Z,2.25
2023-03-10T04:02:45.642Z,2.25
2023-03-10T04:05:13.175Z,2.28
2023-03-10T04:07:41.073Z,2.28
2023-03-10T04:10:09.484Z,2.28
2023-03-10T04:12:38.495Z,2.28
2023-03-10T04:15:07.566Z,2.28
2023-03-10T04:17:35.254Z,2.27
2023-03-10T04:20:08.770Z,2.26
2023-03-10T04:22:36.516Z,2.26
2023-03-10T04:25:04.302Z,2.25
2023-03-10T04:27:32.001Z,2.25
2023-03-10T04:30:00.885Z,2.23
2023-03-10T04:32:28.489Z,2.23
2023-03-10T04:34:56.017Z,2.22
2023-03-10T04:37:23.538Z,2.20
2023-03-10T04:39:51.098Z,2.20
2023-03-10T04:42:18.547Z,2.20
2023-03-10T04:44:46.955Z,2.18
2023-03-10T04:47:15.911Z,2.17
2023-03-10T04:49:43.446Z,2.14
2023-03-10T04:52:10.870Z,2.12
2023-03-10T04:54:38.378Z,2.12
2023-03-10T04:57:05.872Z,2.12
2023-03-10T04:59:33.361Z,2.11
2023-03-10T05:02:00.856Z,2.11
2023-03-10T05:04:29.777Z,2.10
2023-03-10T05:06:57.341Z,2.11
2023-03-10T05:09:24.846Z,2.10
2023-03-10T05:11:52.402Z,2.09
2023-03-10T05:14:19.886Z,2.07
2023-03-10T05:16:48.578Z,2.08
2023-03-10T05:19:16.141Z,2.06
2023-03-10T05:21:45.031Z,2.05
2023-03-10T05:24:12.498Z,2.04
2023-03-10T05:26:39.966Z,2.04
2023-03-10T05:29:07.463Z,2.04
2023-03-10T05:31:35.069Z,2.05
2023-03-10T05:34:02.664Z,2.06
2023-03-10T05:36:30.185Z,2.08
2023-03-10T05:38:59.070Z,2.07
2023-03-10T05:41:26.577Z,2.07
2023-03-10T05:43:54.076Z,2.07
2023-03-10T05:46:21.725Z,2.05
2023-03-10T05:48:49.510Z,2.04
2023-03-10T05:51:17.030Z,2.03
2023-03-10T05:53:44.565Z,2.03
2023-03-10T05:56:14.328Z,2.04
2023-03-10T05:58:42.049Z,2.04
2023-03-10T06:01:09.714Z,2.03
2023-03-10T06:03:37.493Z,2.01
2023-03-10T06:06:06.674Z,2.02
2023-03-10T06:08:34.627Z,2.00
2023-03-10T06:11:02.090Z,1.98
2023-03-10T06:13:31.188Z,1.98
2023-03-10T06:15:59.394Z,1.98
2023-03-10T06:18:27.260Z,1.97
2023-03-10T06:20:54.853Z,1.97
2023-03-10T06:23:22.818Z,2.00
2023-03-10T06:25:57.272Z,2.00
2023-03-10T06:28:24.860Z,1.99
2023-03-10T06:30:56.474Z,1.99
2023-03-10T06:33:24.376Z,2.00
2023-03-10T06:35:51.895Z,2.01
2023-03-10T06:38:19.429Z,2.00
2023-03-10T06:40:47.214Z,1.99
2023-03-10T06:43:14.783Z,2.00
2023-03-10T06:45:42.493Z,2.00
2023-03-10T06:48:11.402Z,1.98
2023-03-10T06:50:41.383Z,1.99
2023-03-10T06:53:08.806Z,1.96
2023-03-10T06:55:36.518Z,1.98
2023-03-10T06:58:04.030Z,1.99
2023-03-10T07:00:31.498Z,2.00
2023-03-10T07:02:58.974Z,2.00
2023-03-10T07:05:28.235Z,2.01
2023-03-10T07:07:55.967Z,2.01
2023-03-10T07:10:23.816Z,2.03
2023-03-10T07:12:55.229Z,2.03
2023-03-10T07:15:23.328Z,2.06
2023-03-10T07:17:50.833Z,2.06
2023-03-10T07:20:18.463Z,2.07
2023-03-10T07:22:47.360Z,2.07
2023-03-10T07:25:14.917Z,2.08
2023-03-10T07:27:42.424Z,2.09
2023-03-10T07:30:10.538Z,2.11
2023-03-10T07:32:38.095Z,2.14
2023-03-10T07:35:06.009Z,2.16
2023-03-10T07:37:33.539Z,2.18
2023-03-10T07:40:02.475Z,2.19
2023-03-10T07:42:29.974Z,2.21
2023-03-10T07:44:57.496Z,2.22
2023-03-10T07:47:25.003Z,2.22
2023-03-10T07:49:52.508Z,2.24
2023-03-10T07:52:20.438Z,2.23
2023-03-10T07:54:48.052Z,2.26
2023-03-10T07:57:17.155Z,2.26
2023-03-10T07:59:46.486Z,2.27
2023-03-10T08:02:14.406Z,2.28
2023-03-10T08:04:42.750Z,2.28
2023-03-10T08:07:10.632Z,2.28
2023-03-10T08:09:39.379Z,2.27
2023-03-10T08:12:07.400Z,2.28
2023-03-10T08:14:36.599Z,2.29
2023-03-10T08:17:04.128Z,2.31
2023-03-10T08:19:31.608Z,2.32
2023-03-10T08:21:59.064Z,2.32
2023-03-10T08:24:26.600Z,2.33
2023-03-10T08:26:54.089Z,2.35
2023-03-10T08:29:21.730Z,2.36
2023-03-10T08:31:50.858Z,2.40
2023-03-10T08:34:18.369Z,2.40
2023-03-10T08:36:45.904Z,2.42
2023-03-10T08:39:13.701Z,2.43
2023-03-10T08:41:45.548Z,2.45
2023-03-10T08:44:15.406Z,2.48
2023-03-10T08:46:46.332Z,2.49
2023-03-10T08:49:15.694Z,2.51
2023-03-10T08:51:43.332Z,2.54
2023-03-10T08:54:11.844Z,2.55
2023-03-10T08:56:39.509Z,2.56
2023-03-10T08:59:07.119Z,2.55
2023-03-10T09:01:35.390Z,2.56
2023-03-10T09:04:03.312Z,2.57
2023-03-10T09:06:32.114Z,2.58
2023-03-10T09:08:59.780Z,2.58
2023-03-10T09:11:28.276Z,2.60
2023-03-10T09:13:56.053Z,2.59
2023-03-10T09:16:23.612Z,2.58
2023-03-10T09:18:51.124Z,2.57
2023-03-10T09:21:20.225Z,2.58
2023-03-10T09:23:49.974Z,2.58
2023-03-10T09:26:17.425Z,2.57
2023-03-10T09:28:44.913Z,2.59
2023-03-10T09:31:14.735Z,2.57
2023-03-10T09:33:42.359Z,2.57
2023-03-10T09:36:10.274Z,2.57
2023-03-10T09:38:37.829Z,2.58
2023-03-10T09:41:09.013Z,2.58
2023-03-10T09:43:38.049Z,2.58
2023-03-10T09:46:07.700Z,2.60
2023-03-10T09:48:41.164Z,2.61
2023-03-10T09:51:11.673Z,2.63
2023-03-10T09:53:45.495Z,2.64
2023-03-10T09:56:15.443Z,2.63
2023-03-10T09:58:43.925Z,2.65
2023-03-10T10:01:14.314Z,2.66
2023-03-10T10:03:52.694Z,2.70
2023-03-10T10:06:22.893Z,2.69
2023-03-10T10:09:03.471Z,2.71
2023-03-10T10:11:33.196Z,2.74
2023-03-10T10:14:08.112Z,2.77
2023-03-10T10:16:38.777Z,2.78
2023-03-10T10:19:07.830Z,2.81
2023-03-10T10:21:42.667Z,2.83
2023-03-10T10:24:10.682Z,2.85
2023-03-10T10:26:39.593Z,2.88
2023-03-10T10:29:13.073Z,2.92
2023-03-10T10:31:40.727Z,2.95
2023-03-10T10:34:09.012Z,2.96
2023-03-10T10:36:37.478Z,2.97
2023-03-10T10:39:05.944Z,2.99
2023-03-10T10:41:34.150Z,2.99
2023-03-10T10:44:08.389Z,3.01
2023-03-10T10:46:36.125Z,3.02
2023-03-10T10:49:05.299Z,3.01
2023-03-10T10:51:34.487Z,3.03
2023-03-10T10:54:02.491Z,3.02
2023-03-10T10:56:30.324Z,3.04
2023-03-10T10:59:06.589Z,3.05
2023-03-10T11:01:50.749Z,3.07
2023-03-10T11:04:18.429Z,3.07
2023-03-10T11:06:45.961Z,3.08
2023-03-10T11:09:14.284Z,3.09
2023-03-10T11:11:43.442Z,3.08
2023-03-10T11:14:19.464Z,3.09
2023-03-10T11:16:49.572Z,3.09
2023-03-10T11:19:18.858Z,3.10
2023-03-10T11:21:46.604Z,3.12
2023-03-10T11:24:15.084Z,3.13
2023-03-10T11:26:46.070Z,3.15
2023-03-10T11:29:17.561Z,3.16
2023-03-10T11:31:46.235Z,3.17
2023-03-10T11:34:17.553Z,3.18
2023-03-10T11:36:55.370Z,3.19
2023-03-10T11:39:25.553Z,3.20
2023-03-10T11:41:54.262Z,3.22
2023-03-10T11:44:24.236Z,3.21
2023-03-10T11:46:55.699Z,3.22
2023-03-10T11:49:27.208Z,3.22
2023-03-10T11:51:55.815Z,3.21
2023-03-10T11:54:26.718Z,3.20
2023-03-10T11:56:54.522Z,3.22
2023-03-10T11:59:23.857Z,3.22
2023-03-10T12:01:52.435Z,3.22
2023-03-10T12:04:21.385Z,3.21
2023-03-10T12:06:50.225Z,3.20
2023-03-10T12:09:19.499Z,3.20
2023-03-10T12:11:47.073Z,3.20
2023-03-10T12:14:14.639Z,3.24
2023-03-10T12:16:43.472Z,3.26
2023-03-10T12:19:10.945Z,3.27
2023-03-10T12:21:38.490Z,3.28
2023-03-10T12:24:06.159Z,3.28
2023-03-10T12:26:55.376Z,3.29
2023-03-10T12:29:33.440Z,3.30
2023-03-10T12:32:02.476Z,3.32
2023-03-10T12:34:32.081Z,3.32
2023-03-10T12:37:07.997Z,3.32
2023-03-10T12:39:39.782Z,3.31
2023-03-10T12:42:22.533Z,3.29
2023-03-10T12:44:52.261Z,3.28
2023-03-10T12:47:25.723Z,3.24
2023-03-10T12:49:55.108Z,3.22
2023-03-10T12:52:24.677Z,3.18
2023-03-10T12:54:53.800Z,3.14
2023-03-10T12:57:23.634Z,3.12
2023-03-10T12:59:53.905Z,3.13
2023-03-10T13:02:24.206Z,3.12
2023-03-10T13:04:53.105Z,3.10
2023-03-10T13:07:20.664Z,3.10
2023-03-10T13:09:48.874Z,3.07
2023-03-10T13:12:17.791Z,3.05
2023-03-10T13:14:45.295Z,3.03
2023-03-10T13:17:21.795Z,3.02
2023-03-10T13:19:59.015Z,3.01
2023-03-10T13:22:26.505Z,2.98
2023-03-10T13:25:01.175Z,2.96
2023-03-10T13:27:30.252Z,2.96
2023-03-10T13:29:58.216Z,2.97
2023-03-10T13:32:26.203Z,2.99
2023-03-10T13:34:53.785Z,3.00
2023-03-10T13:37:22.643Z,2.98
2023-03-10T13:39:50.168Z,2.95
2023-03-10T13:42:21.382Z,2.93
2023-03-10T13:44:51.854Z,2.93
2023-03-10T13:47:20.354Z,2.90
2023-03-10T13:49:49.134Z,2.88
2023-03-10T13:52:17.174Z,2.89
2023-03-10T13:54:46.111Z,2.90
2023-03-10T13:57:17.027Z,2.93
2023-03-10T13:59:44.712Z,2.93
2023-03-10T14:02:14.409Z,2.93
2023-03-10T14:04:43.082Z,2.93
2023-03-10T14:07:11.043Z,2.93
2023-03-10T14:09:38.678Z,2.91
2023-03-10T14:12:08.049Z,2.91
2023-03-10T14:14:36.577Z,2.89
2023-03-10T14:17:05.035Z,2.89
2023-03-10T14:19:50.985Z,2.87
2023-03-10T14:22:25.472Z,2.87
2023-03-10T14:24:52.997Z,2.85
2023-03-10T14:27:22.000Z,2.82
2023-03-10T14:29:50.272Z,2.79
2023-03-10T14:32:17.925Z,2.77
2023-03-10T14:34:45.436Z,2.77
2023-03-10T14:37:12.862Z,2.76
2023-03-10T14:39:40.404Z,2.75
2023-03-10T14:42:08.293Z,2.73
2023-03-10T14:44:37.209Z,2.71
2023-03-10T14:47:05.039Z,2.69
2023-03-10T14:49:32.685Z,2.70
2023-03-10T14:52:00.219Z,2.68
2023-03-10T14:54:27.808Z,2.65
2023-03-10T14:56:59.004Z,2.65
2023-03-10T14:59:26.564Z,2.64
2023-03-10T15:01:55.536Z,2.63
2023-03-10T15:04:23.122Z,2.60
2023-03-10T15:06:50.689Z,2.57
2023-03-10T15:09:19.738Z,2.55
2023-03-10T15:11:47.266Z,2.53
2023-03-10T15:14:15.243Z,2.51
2023-03-10T15:16:42.809Z,2.48
2023-03-10T15:19:14.318Z,2.43
2023-03-10T15:21:41.813Z,2.37
2023-03-10T15:24:09.423Z,2.30
2023-03-10T15:26:36.883Z,2.22
2023-03-10T15:29:04.399Z,2.16
2023-03-10T15:31:31.926Z,2.12
2023-03-10T15:33:59.410Z,2.06
2023-03-10T15:36:28.268Z,1.98
2023-03-10T15:38:55.823Z,1.89
2023-03-10T15:41:23.714Z,1.82
2023-03-10T15:43:51.230Z,1.75
2023-03-10T15:46:18.958Z,1.68
2023-03-10T15:48:46.462Z,1.60
2023-03-10T15:51:17.453Z,1.51
2023-03-10T15:53:46.488Z,1.43
2023-03-10T15:56:15.357Z,1.36
2023-03-10T15:58:42.953Z,1.33
2023-03-10T16:01:10.557Z,1.31
2023-03-10T16:03:38.396Z,1.28
2023-03-10T16:06:06.124Z,1.22
2023-03-10T16:08:37.360Z,1.20
2023-03-10T16:11:09.199Z,1.16
2023-03-10T16:13:36.729Z,1.15
2023-03-10T16:16:07.546Z,1.13
2023-03-10T16:18:35.327Z,1.12
2023-03-10T16:21:03.130Z,1.11
2023-03-10T16:23:31.205Z,1.08
2023-03-10T16:26:10.509Z,1.05
2023-03-10T16:28:38.755Z,1.02
2023-03-10T16:31:06.638Z,1.01
2023-03-10T16:33:34.233Z,0.99
2023-03-10T16:36:01.981Z,0.97
2023-03-10T16:38:29.704Z,0.94
2023-03-10T16:40:57.978Z,0.92
2023-03-10T16:43:28.043Z,0.91
2023-03-10T16:46:04.128Z,0.90
2023-03-10T16:48:31.725Z,0.91
2023-03-10T16:50:59.172Z,0.91
2023-03-10T16:53:26.769Z,0.91
2023-03-10T16:55:56.518Z,0.90
2023-03-10T16:58:24.037Z,0.88
2023-03-10T17:00:53.051Z,0.88
2023-03-10T17:03:20.675Z,0.88
2023-03-10T17:05:52.151Z,0.88
2023-03-10T17:08:19.712Z,0.87
2023-03-10T17:10:47.216Z,0.87
2023-03-10T17:13:14.696Z,0.86
2023-03-10T17:15:42.189Z,0.82
2023-03-10T17:18:11.181Z,0.82
2023-03-10T17:20:39.274Z,0.82
2023-03-10T17:23:06.815Z,0.81
2023-03-10T17:25:34.382Z,0.81
2023-03-10T17:28:01.955Z,0.81
2023-03-10T17:30:29.553Z,0.80
2023-03-10T17:32:57.128Z,0.78
2023-03-10T17:35:26.118Z,0.76
2023-03-10T17:37:53.678Z,0.74
2023-03-10T17:40:22.862Z,0.72
2023-03-10T17:42:50.415Z,0.70
2023-03-10T17:45:18.046Z,0.69
2023-03-10T17:47:45.554Z,0.65
2023-03-10T17:50:13.053Z,0.66
2023-03-10T17:52:42.021Z,0.63
2023-03-10T17:55:09.765Z,0.63
2023-03-10T17:57:39.686Z,0.61
2023-03-10T18:00:09.765Z,0.59
2023-03-10T18:02:37.363Z,0.58
2023-03-10T18:05:05.194Z,0.58
2023-03-10T18:07:32.751Z,0.59
2023-03-10T18:10:01.696Z,0.58
2023-03-10T18:12:29.193Z,0.58
2023-03-10T18:14:56.646Z,0.58
2023-03-10T18:17:24.075Z,0.58
2023-03-10T18:19:52.094Z,0.61
2023-03-10T18:22:19.666Z,0.60
2023-03-10T18:24:47.139Z,0.59
2023-03-10T18:27:15.936Z,0.58
2023-03-10T18:29:43.461Z,0.59
2023-03-10T18:32:10.984Z,0.58
2023-03-10T18:34:38.462Z,0.58
2023-03-10T18:37:06.147Z,0.59
2023-03-10T18:39:34.054Z,0.59
2023-03-10T18:42:01.520Z,0.60
2023-03-10T18:44:30.371Z,0.59
2023-03-10T18:46:57.851Z,0.59
2023-03-10T18:49:25.369Z,0.59
2023-03-10T18:51:52.864Z,0.60
2023-03-10T18:54:20.339Z,0.60
2023-03-10T18:56:47.811Z,0.61
2023-03-10T18:59:15.275Z,0.60
2023-03-10T19:01:44.216Z,0.60
2023-03-10T19:04:11.744Z,0.61
2023-03-10T19:06:40.534Z,0.61
2023-03-10T19:09:08.721Z,0.62
2023-03-10T19:11:36.501Z,0.62
2023-03-10T19:14:05.406Z,0.64
2023-03-10T19:16:33.006Z,0.64
2023-03-10T19:19:01.914Z,0.64
2023-03-10T19:21:29.485Z,0.64
2023-03-10T19:23:56.971Z,0.64
2023-03-10T19:26:24.495Z,0.64
2023-03-10T19:28:52.053Z,0.64
2023-03-10T19:31:19.644Z,0.65
2023-03-10T19:33:49.969Z,0.65
2023-03-10T19:36:18.906Z,0.65
2023-03-10T19:38:46.443Z,0.67
2023-03-10T19:41:15.109Z,0.67
2023-03-10T19:43:42.826Z,0.68
2023-03-10T19:46:11.524Z,0.69
2023-03-10T19:48:39.102Z,0.69
2023-03-10T19:51:06.749Z,0.69
2023-03-10T19:53:36.087Z,0.70
2023-03-10T19:56:04.826Z,0.71
2023-03-10T19:58:32.711Z,0.72
2023-03-10T20:01:00.489Z,0.70
2023-03-10T20:03:29.116Z,0.72
2023-03-10T20:05:56.683Z,0.72
2023-03-10T20:08:24.770Z,0.71
2023-03-10T20:10:53.667Z,0.71
2023-03-10T20:13:21.325Z,0.71
2023-03-10T20:15:48.916Z,0.72
2023-03-10T20:18:18.460Z,0.74
2023-03-10T20:20:46.173Z,0.74
2023-03-10T20:23:13.683Z,0.74
2023-03-10T20:25:41.213Z,0.75
2023-03-10T20:28:10.269Z,0.74
2023-03-10T20:30:38.822Z,0.75
2023-03-10T20:33:06.303Z,0.74
2023-03-10T20:35:34.215Z,0.75
2023-03-10T20:38:02.248Z,0.74
2023-03-10T20:40:29.770Z,0.75
2023-03-10T20:42:59.461Z,0.75
2023-03-10T20:45:28.495Z,0.74
2023-03-10T20:47:56.068Z,0.74
2023-03-10T20:50:23.541Z,0.74
2023-03-10T20:52:51.068Z,0.73
2023-03-10T20:55:20.531Z,0.74
2023-03-10T20:57:48.280Z,0.73
2023-03-10T21:00:17.516Z,0.75
2023-03-10T21:02:46.822Z,0.75
2023-03-10T21:05:14.382Z,0.76
2023-03-10T21:07:41.887Z,0.76
2023-03-10T21:10:11.465Z,0.77
2023-03-10T21:12:39.698Z,0.77
2023-03-10T21:15:07.774Z,0.77
2023-03-10T21:17:35.266Z,0.76
2023-03-10T21:20:05.932Z,0.77
2023-03-10T21:22:35.153Z,0.78
2023-03-10T21:25:02.822Z,0.78
2023-03-10T21:27:31.449Z,0.79
2023-03-10T21:30:00.052Z,0.80
2023-03-10T21:32:27.679Z,0.78
2023-03-10T21:34:55.201Z,0.79
2023-03-10T21:37:24.008Z,0.79
2023-03-10T21:39:53.850Z,0.79
2023-03-10T21:42:21.326Z,0.80
2023-03-10T21:44:49.074Z,0.80
2023-03-10T21:47:16.559Z,0.79
2023-03-10T21:49:44.085Z,0.78
2023-03-10T21:52:11.539Z,0.77
2023-03-10T21:54:40.729Z,0.76
2023-03-10T21:57:08.364Z,0.76
2023-03-10T21:59:35.872Z,0.75
2023-03-10T22:02:03.495Z,0.74
2023-03-10T22:04:31.081Z,0.75
2023-03-10T22:06:58.590Z,0.73
2023-03-10T22:09:26.066Z,0.73
2023-03-10T22:11:54.962Z,0.73
2023-03-10T22:14:24.441Z,0.73
2023-03-10T22:16:52.091Z,0.74
2023-03-10T22:19:20.126Z,0.74
2023-03-10T22:21:47.724Z,0.74
2023-03-10T22:24:15.246Z,0.74
2023-03-10T22:26:43.019Z,0.75
2023-03-10T22:29:11.904Z,0.74
2023-03-10T22:31:39.567Z,0.73
2023-03-10T22:34:07.064Z,0.74
2023-03-10T22:36:34.599Z,0.73
2023-03-10T22:39:02.104Z,0.73
2023-03-10T22:41:29.558Z,0.73
2023-03-10T22:43:57.005Z,0.74
2023-03-10T22:46:25.961Z,0.74
2023-03-10T22:48:53.493Z,0.74
2023-03-10T22:51:21.023Z,0.74
2023-03-10T22:53:48.535Z,0.72
2023-03-10T22:56:16.170Z,0.72
2023-03-10T22:58:43.645Z,0.72
2023-03-10T23:01:11.189Z,0.72
2023-03-10T23:03:41.575Z,0.71
2023-03-10T23:06:09.217Z,0.70
2023-03-10T23:08:37.420Z,0.72
2023-03-10T23:11:06.708Z,0.73
2023-03-10T23:13:34.190Z,0.73
2023-03-10T23:16:01.927Z,0.73
2023-03-10T23:18:29.464Z,0.72
2023-03-10T23:20:58.424Z,0.72
2023-03-10T23:23:26.054Z,0.73
2023-03-10T23:25:53.628Z,0.73
2023-03-10T23:28:21.682Z,0.74
2023-03-10T23:30:49.813Z,0.74
2023-03-10T23:33:18.019Z,0.75
2023-03-10T23:35:46.315Z,0.75
2023-03-10T23:38:15.258Z,0.76
2023-03-10T23:40:42.758Z,0.76
2023-03-10T23:43:10.244Z,0.75
2023-03-10T23:45:38.289Z,0.75
2023-03-10T23:48:06.985Z,0.77
2023-03-10T23:50:35.912Z,0.76
2023-03-10T23:53:03.689Z,0.77
2023-03-10T23:55:33.393Z,0.77
2023-03-10T23:58:00.958Z,0.76
